PST,Max TemperatureF,Mean TemperatureF,Min TemperatureF,Max Dew PointF,MeanDew PointF,Min DewpointF,Max Humidity, Mean Humidity, Min Humidity, Max Sea Level PressureIn, Mean Sea Level PressureIn, Min Sea Level PressureIn, Max VisibilityMiles, Mean VisibilityMiles, Min VisibilityMiles, Max Wind SpeedMPH, Mean Wind SpeedMPH, Max Gust SpeedMPH,PrecipitationIn, CloudCover, Events, WindDirDegrees
2012-12-1,53,50,46,46,45,40,93,82,71,29.74,29.57,29.33,10,8,2,32,12,41,0.79,7,Rain,164
2012-12-2,52,48,44,46,44,40,93,82,71,29.94,29.57,29.28,10,9,3,23,13,31,0.61,6,Rain,199
2012-12-3,54,51,47,46,45,43,86,79,71,30.05,29.96,29.67,10,9,3,22,11,26,0.52,8,Rain,177
2012-12-4,55,51,47,52,49,42,93,88,83,29.99,29.79,29.63,10,6,2,17,7,25,0.84,8,Rain,223
2012-12-5,52,44,35,42,37,34,100,80,59,30.27,30.20,30.02,10,8,2,10,3,15,0.01,3,,227
2012-12-6,49,42,35,43,40,34,93,85,76,30.26,30.22,30.19,10,9,2,16,6,21,0.06,7,Rain,205
2012-12-7,52,47,42,45,42,38,92,84,76,30.25,30.18,30.13,10,10,4,20,9,28,0.06,7,Rain,211
2012-12-8,47,43,38,41,39,36,92,84,76,30.38,30.31,30.24,10,10,9,9,4,12,0.03,7,Rain,229
2012-12-9,48,45,41,45,41,39,93,85,77,30.41,30.38,30.35,10,8,2,14,3,23,0.06,8,Rain,174
2012-12-10,52,49,45,45,44,43,93,85,77,30.45,30.38,30.15,10,8,2,9,2,12,0.00,8,,302
2012-12-11,48,45,41,44,41,38,93,88,82,30.11,29.80,29.63,10,10,8,20,8,25,0.12,7,Rain,201
2012-12-12,48,42,35,41,38,34,93,85,76,30.03,29.90,29.73,10,7,0,12,4,14,0.05,7,Fog-Rain,222
2012-12-13,41,38,34,38,36,32,96,88,79,30.06,29.99,29.86,10,5,0,6,2,21,0.01,8,Fog-Rain,189
2012-12-14,47,39,31,40,35,30,96,86,76,29.99,29.92,29.84,10,5,0,9,2,12,0.18,6,Fog-Rain,168
2012-12-15,41,37,32,39,33,30,100,93,85,29.95,29.83,29.65,10,6,0,21,6,26,0.29,7,Fog-Rain,175
2012-12-16,51,43,35,46,41,34,100,87,74,29.85,29.54,29.18,10,9,2,30,14,43,0.77,8,Rain,194
2012-12-17,48,41,34,41,35,32,92,82,71,30.01,29.83,29.28,10,8,3,35,11,52,0.42,7,Rain-Snow,214
2012-12-18,41,37,33,36,32,30,96,89,82,30.08,30.04,29.99,10,8,1,15,6,18,0.27,7,Rain-Snow,185
2012-12-19,48,42,36,39,35,32,89,80,70,30.03,29.82,29.60,10,10,7,35,22,47,0.41,8,Rain,182
2012-12-20,48,40,31,39,35,28,96,81,66,29.84,29.75,29.61,10,8,0,33,9,40,0.80,6,Fog-Rain,178
2012-12-21,46,38,30,43,36,28,96,89,82,29.80,29.73,29.62,10,4,0,7,2,8,0.16,7,Fog-Rain,35
2012-12-22,46,44,41,40,37,35,82,79,76,29.79,29.63,29.53,10,8,2,29,12,37,0.21,7,Rain,167
2012-12-23,43,40,37,39,37,35,92,84,76,29.92,29.76,29.63,10,9,2,24,6,31,0.45,8,Rain,182
2012-12-24,47,40,32,40,35,30,100,88,76,30.21,30.14,29.94,10,6,0,12,3,20,0.03,6,Fog-Rain,128
2012-12-25,42,39,36,40,38,36,100,90,79,30.00,29.75,29.67,10,8,4,10,4,15,0.55,8,Rain,4
2012-12-26,49,45,41,43,40,37,100,88,76,30.05,29.84,29.71,10,6,0,12,5,14,0.08,8,Fog-Rain,307
2012-12-27,46,39,32,40,36,30,92,87,82,30.21,30.16,30.06,10,5,0,10,2,18,0.01,7,Fog-Rain,282
2012-12-28,44,41,38,38,36,32,92,84,76,30.18,30.14,30.12,10,9,7,74,2,178,0.01,8,,346
2012-12-29,40,37,34,34,32,29,92,81,70,30.25,30.20,30.17,10,10,5,7,1,29,0.01,8,Rain,31
2012-12-30,44,36,27,35,31,25,92,77,62,30.32,30.28,30.23,10,9,5,9,3,12,0.00,3,,354
2012-12-31,36,32,28,34,30,26,92,87,82,30.43,30.32,30.27,10,6,1,10,3,13,0.06,7,Rain-Snow,359